EGGPEGFF

Guest
Details From EGGP - Liverpool
To EGFF - Cardiff
Flight Number -
Tags generated
Created
Modified
Stats Distance 118 nm / 218 km
Max Altitude 600 ft / 183 m
Waypoints 3
Social Downloads 1
Likes 0
Share VATSIM

Download

Looking for another format? Having issues loading an existing format? Contact us
Advertisement - Login to hide

Notes

Basic altitude profile: - Ascent Rate: 1500ft/min - Ascent Speed: 150kts - Cruise Altitude: 25000ft - Cruise Speed: 180kts - Descent Rate: 100ft/min - Descent Speed: 140kts

Route

EGGP BCN EGFF

ID Type Via Altitude Latitude Longitude Leg Dist Tot Dist Heading (true) Name
O EGGP APT - 0 ft / 0 m 53.33363˚ -2.84977˚ - 0 nm - Liverpool
BCN VOR - 600 ft / 183 m 51.72556˚ -3.26306˚ 97 nm 97 nm 189° / 189° BRECON VOR-DME
O EGFF APT - 0 ft / 0 m 51.39656˚ -3.34320˚ 19 nm 117 nm 189° / 189° Cardiff

Altitude Profile

Advertisement - Login to hide

EGGP

Details ICAO EGGP (LPL)
Name Liverpool
Region United Kingdom
Timezone Europe/London (UTC+1.0)
Stats Elevation 80 ft / 24 m (AMSL)
Location 53.333632° -2.849769°
Runways 1
Magnetic Variation 1.605° W

METAR

EGGP 241220Z 08012KT CAVOK 22/11 Q1021

Decode

TAF

TAF TAF EGGP 241103Z 2412/2512 06009KT 9999 FEW045 TEMPO 2505/2512 7000 SHRA BKN012 PROB30 TEMPO 2506/2512 3000 +SHRA

Decode

Departure Runways

ID Width Length Bearing (true) Bearing (mag) Surface Threshold Offset Overrun Length
09 151 ft / 46 m 7,466 ft / 2,276 m 85.59° 87.19° Asphalt 180 ft / 55 m 0 ft / 0 m
27 151 ft / 46 m 7,466 ft / 2,276 m 265.61° 267.21° Asphalt 0 ft / 0 m 0 ft / 0 m

EGFF

Details ICAO EGFF (CWL)
Name Cardiff
Region United Kingdom
Timezone Europe/London (UTC+1.0)
Stats Elevation 220 ft / 67 m (AMSL)
Location 51.396565° -3.343202°
Runways 1
Magnetic Variation 1.512° W

METAR

EGFF 241220Z AUTO 07010KT 6000 -RA BKN010 OVC026 13/11 Q1021

Decode

TAF

TAF AMD EGFF 241247Z 2412/2512 06012KT 9999 BKN012 BECMG 2412/2415 SCT015 TEMPO 2412/2512 3000 RA SHRA BKN008 BECMG 2417/2420 VRB04KT PROB30 TEMPO 2418/2512 1400 +SHRA BKN020CB

Decode

Destination Runways

ID Width Length Bearing (true) Bearing (mag) Surface Threshold Offset Overrun Length
12 131 ft / 40 m 7,831 ft / 2,387 m 116.82° 118.33° Asphalt 715 ft / 218 m 0 ft / 0 m
30 131 ft / 40 m 7,831 ft / 2,387 m 296.84° 298.35° Asphalt 594 ft / 181 m 0 ft / 0 m

Approach Navaids

Runway Type Ident Frequency Range Bearing (true) Bearing (mag) Slope Elevation
12 Localiser ICDF 110.70 MHz 18 nm / 33 km 116.85° 118.36° - 220 ft / 67 m (AMSL)
12 Glidescope ICDF 110.70 MHz 10 nm / 19 km 116.83° 118.34° 3.00° 220 ft / 67 m (AMSL)
12 DME ICDF 110.70 MHz 18 nm / 33 km - - - 281 ft / 86 m (AMSL)
30 Localiser ICWA 110.70 MHz 18 nm / 33 km 296.82° 298.33° - 220 ft / 67 m (AMSL)
30 Glidescope ICWA 110.70 MHz 10 nm / 19 km 296.83° 298.34° 3.00° 220 ft / 67 m (AMSL)
30 DME ICWA 110.70 MHz 18 nm / 33 km - - - 220 ft / 67 m (AMSL)

Popular Alternatives